sensor_id;sensor_type;location;lat;lon;timestamp;P1;durP1;ratioP1;P2;durP2;ratioP2
3563;SDS011;1796;52.388;13.096;2023-04-01T00:00:46;1.77;;;1.57;;
3563;SDS011;1796;52.388;13.096;2023-04-01T00:03:12;1.87;;;1.77;;
3563;SDS011;1796;52.388;13.096;2023-04-01T00:05:39;1.50;;;1.40;;
3563;SDS011;1796;52.388;13.096;2023-04-01T00:08:06;1.87;;;1.70;;
3563;SDS011;1796;52.388;13.096;2023-04-01T00:10:34;3.47;;;1.80;;
3563;SDS011;1796;52.388;13.096;2023-04-01T00:13:01;1.53;;;1.43;;
3563;SDS011;1796;52.388;13.096;2023-04-01T00:15:28;2.50;;;2.00;;
3563;SDS011;1796;52.388;13.096;2023-04-01T00:17:55;6.80;;;1.80;;
3563;SDS011;1796;52.388;13.096;2023-04-01T00:20:22;5.00;;;1.80;;
3563;SDS011;1796;52.388;13.096;2023-04-01T00:22:49;2.50;;;1.73;;
3563;SDS011;1796;52.388;13.096;2023-04-01T00:25:16;1.53;;;1.43;;
3563;SDS011;1796;52.388;13.096;2023-04-01T00:27:45;7.33;;;2.00;;
3563;SDS011;1796;52.388;13.096;2023-04-01T00:30:12;1.57;;;1.57;;
3563;SDS011;1796;52.388;13.096;2023-04-01T00:32:40;1.53;;;1.43;;
3563;SDS011;1796;52.388;13.096;2023-04-01T00:35:07;5.63;;;1.67;;
3563;SDS011;1796;52.388;13.096;2023-04-01T00:37:35;4.37;;;1.87;;
3563;SDS011;1796;52.388;13.096;2023-04-01T00:40:03;1.70;;;1.60;;
3563;SDS011;1796;52.388;13.096;2023-04-01T00:42:31;16.03;;;3.20;;
3563;SDS011;1796;52.388;13.096;2023-04-01T00:45:21;1.80;;;1.43;;
3563;SDS011;1796;52.388;13.096;2023-04-01T00:47:51;7.50;;;1.87;;
3563;SDS011;1796;52.388;13.096;2023-04-01T00:50:18;4.07;;;1.73;;
3563;SDS011;1796;52.388;13.096;2023-04-01T00:52:45;3.37;;;1.80;;
3563;SDS011;1796;52.388;13.096;2023-04-01T00:55:12;1.70;;;1.60;;
3563;SDS011;1796;52.388;13.096;2023-04-01T00:57:41;5.03;;;1.57;;
3563;SDS011;1796;52.388;13.096;2023-04-01T01:00:12;5.40;;;1.63;;
3563;SDS011;1796;52.388;13.096;2023-04-01T01:02:41;2.10;;;1.60;;
3563;SDS011;1796;52.388;13.096;2023-04-01T01:05:10;2.23;;;1.70;;
3563;SDS011;1796;52.388;13.096;2023-04-01T01:07:39;3.10;;;1.77;;
3563;SDS011;1796;52.388;13.096;2023-04-01T01:10:12;1.67;;;1.57;;
3563;SDS011;1796;52.388;13.096;2023-04-01T01:12:44;1.60;;;1.50;;
3563;SDS011;1796;52.388;13.096;2023-04-01T01:15:18;4.43;;;1.77;;
3563;SDS011;1796;52.388;13.096;2023-04-01T01:17:55;2.20;;;1.40;;
3563;SDS011;1796;52.388;13.096;2023-04-01T01:23:34;4.27;;;1.90;;
3563;SDS011;1796;52.388;13.096;2023-04-01T01:26:27;2.10;;;1.83;;
3563;SDS011;1796;52.388;13.096;2023-04-01T01:32:03;9.20;;;2.00;;
3563;SDS011;1796;52.388;13.096;2023-04-01T01:34:43;5.67;;;1.80;;
3563;SDS011;1796;52.388;13.096;2023-04-01T01:37:22;3.27;;;1.87;;
3563;SDS011;1796;52.388;13.096;2023-04-01T01:39:52;2.17;;;1.97;;
3563;SDS011;1796;52.388;13.096;2023-04-01T01:42:24;2.13;;;1.57;;
3563;SDS011;1796;52.388;13.096;2023-04-01T01:44:53;1.57;;;1.57;;
3563;SDS011;1796;52.388;13.096;2023-04-01T01:47:24;3.83;;;1.80;;
3563;SDS011;1796;52.388;13.096;2023-04-01T01:49:52;2.13;;;1.80;;
3563;SDS011;1796;52.388;13.096;2023-04-01T01:52:22;3.63;;;1.90;;
3563;SDS011;1796;52.388;13.096;2023-04-01T01:54:50;2.07;;;1.90;;
3563;SDS011;1796;52.388;13.096;2023-04-01T01:57:19;9.53;;;1.70;;
3563;SDS011;1796;52.388;13.096;2023-04-01T01:59:49;4.73;;;1.70;;
3563;SDS011;1796;52.388;13.096;2023-04-01T02:02:17;4.53;;;1.47;;
3563;SDS011;1796;52.388;13.096;2023-04-01T02:04:44;5.30;;;1.70;;
3563;SDS011;1796;52.388;13.096;2023-04-01T02:07:13;7.47;;;1.80;;
3563;SDS011;1796;52.388;13.096;2023-04-01T02:09:46;9.20;;;2.00;;
3563;SDS011;1796;52.388;13.096;2023-04-01T02:12:15;4.73;;;1.63;;
3563;SDS011;1796;52.388;13.096;2023-04-01T02:14:45;6.20;;;1.70;;
3563;SDS011;1796;52.388;13.096;2023-04-01T02:17:18;4.27;;;1.63;;
3563;SDS011;1796;52.388;13.096;2023-04-01T02:19:47;5.50;;;1.87;;
3563;SDS011;1796;52.388;13.096;2023-04-01T02:22:18;6.77;;;2.00;;
3563;SDS011;1796;52.388;13.096;2023-04-01T02:24:49;4.43;;;1.80;;
3563;SDS011;1796;52.388;13.096;2023-04-01T02:27:18;3.70;;;2.00;;
3563;SDS011;1796;52.388;13.096;2023-04-01T02:29:46;2.07;;;1.83;;
3563;SDS011;1796;52.388;13.096;2023-04-01T02:32:13;2.70;;;2.00;;
3563;SDS011;1796;52.388;13.096;2023-04-01T02:34:42;3.93;;;1.50;;
3563;SDS011;1796;52.388;13.096;2023-04-01T02:37:10;3.90;;;1.70;;
3563;SDS011;1796;52.388;13.096;2023-04-01T02:39:37;4.63;;;1.90;;
3563;SDS011;1796;52.388;13.096;2023-04-01T02:42:06;9.10;;;1.70;;
3563;SDS011;1796;52.388;13.096;2023-04-01T02:44:32;2.57;;;1.60;;
3563;SDS011;1796;52.388;13.096;2023-04-01T02:46:59;2.83;;;2.00;;
3563;SDS011;1796;52.388;13.096;2023-04-01T02:49:26;3.60;;;2.57;;
3563;SDS011;1796;52.388;13.096;2023-04-01T02:51:53;3.23;;;1.60;;
3563;SDS011;1796;52.388;13.096;2023-04-01T02:54:20;3.13;;;2.07;;
3563;SDS011;1796;52.388;13.096;2023-04-01T02:56:47;5.40;;;1.60;;
3563;SDS011;1796;52.388;13.096;2023-04-01T02:59:15;2.50;;;1.50;;
3563;SDS011;1796;52.388;13.096;2023-04-01T03:01:42;3.13;;;1.80;;
3563;SDS011;1796;52.388;13.096;2023-04-01T03:04:09;2.20;;;2.10;;
3563;SDS011;1796;52.388;13.096;2023-04-01T03:06:36;2.37;;;2.00;;
3563;SDS011;1796;52.388;13.096;2023-04-01T03:09:03;11.80;;;2.07;;
3563;SDS011;1796;52.388;13.096;2023-04-01T03:11:29;4.17;;;1.70;;
3563;SDS011;1796;52.388;13.096;2023-04-01T03:13:56;4.20;;;1.60;;
3563;SDS011;1796;52.388;13.096;2023-04-01T03:16:24;3.90;;;1.90;;
3563;SDS011;1796;52.388;13.096;2023-04-01T03:18:51;8.80;;;2.07;;
3563;SDS011;1796;52.388;13.096;2023-04-01T03:21:20;3.60;;;2.10;;
3563;SDS011;1796;52.388;13.096;2023-04-01T03:23:48;5.50;;;2.00;;
3563;SDS011;1796;52.388;13.096;2023-04-01T03:26:15;3.57;;;1.93;;
3563;SDS011;1796;52.388;13.096;2023-04-01T03:28:43;5.37;;;2.20;;
3563;SDS011;1796;52.388;13.096;2023-04-01T03:31:10;8.93;;;1.90;;
3563;SDS011;1796;52.388;13.096;2023-04-01T03:33:38;7.90;;;2.10;;
3563;SDS011;1796;52.388;13.096;2023-04-01T03:36:05;2.00;;;1.50;;
3563;SDS011;1796;52.388;13.096;2023-04-01T03:38:32;14.37;;;2.60;;
3563;SDS011;1796;52.388;13.096;2023-04-01T03:40:59;4.00;;;1.97;;
3563;SDS011;1796;52.388;13.096;2023-04-01T03:43:27;5.80;;;2.43;;
3563;SDS011;1796;52.388;13.096;2023-04-01T03:45:54;6.13;;;2.30;;
3563;SDS011;1796;52.388;13.096;2023-04-01T03:48:22;2.30;;;1.50;;
3563;SDS011;1796;52.388;13.096;2023-04-01T03:50:51;6.03;;;2.00;;
3563;SDS011;1796;52.388;13.096;2023-04-01T03:53:18;6.23;;;2.00;;
3563;SDS011;1796;52.388;13.096;2023-04-01T03:55:45;5.47;;;1.67;;
3563;SDS011;1796;52.388;13.096;2023-04-01T03:58:12;7.17;;;1.50;;
3563;SDS011;1796;52.388;13.096;2023-04-01T04:00:39;2.83;;;2.03;;
3563;SDS011;1796;52.388;13.096;2023-04-01T04:03:06;4.53;;;1.90;;
3563;SDS011;1796;52.388;13.096;2023-04-01T04:05:33;3.57;;;1.90;;
3563;SDS011;1796;52.388;13.096;2023-04-01T04:08:01;6.03;;;2.37;;
3563;SDS011;1796;52.388;13.096;2023-04-01T04:10:29;6.30;;;2.60;;
3563;SDS011;1796;52.388;13.096;2023-04-01T04:12:56;5.77;;;1.80;;
3563;SDS011;1796;52.388;13.096;2023-04-01T04:15:23;5.87;;;1.80;;
3563;SDS011;1796;52.388;13.096;2023-04-01T04:17:50;6.10;;;2.13;;
3563;SDS011;1796;52.388;13.096;2023-04-01T04:20:16;8.07;;;1.93;;
3563;SDS011;1796;52.388;13.096;2023-04-01T04:22:43;9.30;;;2.00;;
3563;SDS011;1796;52.388;13.096;2023-04-01T04:25:11;4.70;;;1.70;;
3563;SDS011;1796;52.388;13.096;2023-04-01T04:27:38;5.67;;;1.87;;
3563;SDS011;1796;52.388;13.096;2023-04-01T04:30:06;9.60;;;2.27;;
3563;SDS011;1796;52.388;13.096;2023-04-01T04:32:34;3.43;;;2.00;;
3563;SDS011;1796;52.388;13.096;2023-04-01T04:35:00;9.93;;;2.27;;
3563;SDS011;1796;52.388;13.096;2023-04-01T04:37:27;4.70;;;2.07;;
3563;SDS011;1796;52.388;13.096;2023-04-01T04:39:54;6.00;;;2.00;;
3563;SDS011;1796;52.388;13.096;2023-04-01T04:42:23;17.10;;;1.90;;
3563;SDS011;1796;52.388;13.096;2023-04-01T04:44:49;3.33;;;2.10;;
3563;SDS011;1796;52.388;13.096;2023-04-01T04:47:16;2.63;;;2.17;;
3563;SDS011;1796;52.388;13.096;2023-04-01T04:49:43;8.87;;;2.40;;
3563;SDS011;1796;52.388;13.096;2023-04-01T04:52:10;5.63;;;2.13;;
3563;SDS011;1796;52.388;13.096;2023-04-01T04:54:37;3.57;;;2.70;;
3563;SDS011;1796;52.388;13.096;2023-04-01T04:57:04;4.73;;;2.07;;
3563;SDS011;1796;52.388;13.096;2023-04-01T04:59:32;7.77;;;1.90;;
3563;SDS011;1796;52.388;13.096;2023-04-01T05:01:59;5.90;;;2.00;;
3563;SDS011;1796;52.388;13.096;2023-04-01T05:04:25;7.83;;;2.20;;
3563;SDS011;1796;52.388;13.096;2023-04-01T05:06:52;9.63;;;2.10;;
3563;SDS011;1796;52.388;13.096;2023-04-01T05:09:20;3.80;;;2.27;;
3563;SDS011;1796;52.388;13.096;2023-04-01T05:11:46;10.87;;;2.50;;
3563;SDS011;1796;52.388;13.096;2023-04-01T05:14:13;4.83;;;2.43;;
3563;SDS011;1796;52.388;13.096;2023-04-01T05:16:42;4.80;;;2.47;;
3563;SDS011;1796;52.388;13.096;2023-04-01T05:19:09;4.13;;;2.13;;
3563;SDS011;1796;52.388;13.096;2023-04-01T05:21:36;8.83;;;2.70;;
3563;SDS011;1796;52.388;13.096;2023-04-01T05:24:03;3.83;;;1.70;;
3563;SDS011;1796;52.388;13.096;2023-04-01T05:26:33;8.57;;;2.30;;
3563;SDS011;1796;52.388;13.096;2023-04-01T05:29:00;2.70;;;2.07;;
3563;SDS011;1796;52.388;13.096;2023-04-01T05:31:27;3.50;;;2.03;;
3563;SDS011;1796;52.388;13.096;2023-04-01T05:33:55;4.30;;;1.90;;
3563;SDS011;1796;52.388;13.096;2023-04-01T05:36:22;5.50;;;1.90;;
3563;SDS011;1796;52.388;13.096;2023-04-01T05:38:49;4.20;;;2.23;;
3563;SDS011;1796;52.388;13.096;2023-04-01T05:41:16;4.53;;;2.00;;
3563;SDS011;1796;52.388;13.096;2023-04-01T05:43:42;5.57;;;1.83;;
3563;SDS011;1796;52.388;13.096;2023-04-01T05:46:09;6.87;;;2.47;;
3563;SDS011;1796;52.388;13.096;2023-04-01T05:48:36;6.23;;;2.20;;
3563;SDS011;1796;52.388;13.096;2023-04-01T05:51:05;3.80;;;2.10;;
3563;SDS011;1796;52.388;13.096;2023-04-01T05:53:31;6.90;;;2.20;;
3563;SDS011;1796;52.388;13.096;2023-04-01T05:56:01;8.97;;;1.80;;
3563;SDS011;1796;52.388;13.096;2023-04-01T05:58:29;6.70;;;2.13;;
3563;SDS011;1796;52.388;13.096;2023-04-01T06:00:59;5.30;;;2.17;;
3563;SDS011;1796;52.388;13.096;2023-04-01T06:03:27;5.37;;;1.77;;
3563;SDS011;1796;52.388;13.096;2023-04-01T06:05:54;10.63;;;2.20;;
3563;SDS011;1796;52.388;13.096;2023-04-01T06:08:23;3.70;;;2.20;;
3563;SDS011;1796;52.388;13.096;2023-04-01T06:10:53;3.73;;;1.70;;
3563;SDS011;1796;52.388;13.096;2023-04-01T06:13:33;2.40;;;1.63;;
3563;SDS011;1796;52.388;13.096;2023-04-01T06:16:10;1.80;;;1.70;;
3563;SDS011;1796;52.388;13.096;2023-04-01T06:18:52;5.10;;;1.70;;
3563;SDS011;1796;52.388;13.096;2023-04-01T06:21:42;3.97;;;1.87;;
3563;SDS011;1796;52.388;13.096;2023-04-01T06:24:38;2.87;;;1.50;;
3563;SDS011;1796;52.388;13.096;2023-04-01T06:27:32;2.03;;;1.70;;
3563;SDS011;1796;52.388;13.096;2023-04-01T06:30:16;10.50;;;2.03;;
3563;SDS011;1796;52.388;13.096;2023-04-01T06:33:00;7.73;;;2.00;;
3563;SDS011;1796;52.388;13.096;2023-04-01T06:35:50;4.83;;;2.03;;
3563;SDS011;1796;52.388;13.096;2023-04-01T06:38:35;1.80;;;1.60;;
3563;SDS011;1796;52.388;13.096;2023-04-01T06:41:27;9.63;;;2.73;;
3563;SDS011;1796;52.388;13.096;2023-04-01T06:44:28;2.80;;;1.60;;
3563;SDS011;1796;52.388;13.096;2023-04-01T06:47:11;3.80;;;1.93;;
3563;SDS011;1796;52.388;13.096;2023-04-01T06:49:50;3.30;;;1.63;;
3563;SDS011;1796;52.388;13.096;2023-04-01T06:52:23;9.70;;;1.93;;
3563;SDS011;1796;52.388;13.096;2023-04-01T06:54:57;4.47;;;1.73;;
3563;SDS011;1796;52.388;13.096;2023-04-01T06:57:29;7.37;;;2.00;;
3563;SDS011;1796;52.388;13.096;2023-04-01T07:00:01;3.47;;;1.80;;
3563;SDS011;1796;52.388;13.096;2023-04-01T07:02:32;8.67;;;2.00;;
3563;SDS011;1796;52.388;13.096;2023-04-01T07:05:05;8.63;;;1.97;;
3563;SDS011;1796;52.388;13.096;2023-04-01T07:07:35;4.40;;;1.80;;
3563;SDS011;1796;52.388;13.096;2023-04-01T07:10:06;7.60;;;3.30;;
3563;SDS011;1796;52.388;13.096;2023-04-01T07:12:42;3.03;;;1.70;;
3563;SDS011;1796;52.388;13.096;2023-04-01T07:15:16;6.77;;;2.20;;
3563;SDS011;1796;52.388;13.096;2023-04-01T07:17:45;5.17;;;1.80;;
3563;SDS011;1796;52.388;13.096;2023-04-01T07:20:20;5.40;;;1.93;;
3563;SDS011;1796;52.388;13.096;2023-04-01T07:22:51;4.60;;;1.80;;
3563;SDS011;1796;52.388;13.096;2023-04-01T07:25:21;7.10;;;1.83;;
3563;SDS011;1796;52.388;13.096;2023-04-01T07:28:00;5.73;;;2.00;;
3563;SDS011;1796;52.388;13.096;2023-04-01T07:30:32;3.87;;;2.03;;
3563;SDS011;1796;52.388;13.096;2023-04-01T07:33:11;3.57;;;1.93;;
3563;SDS011;1796;52.388;13.096;2023-04-01T07:35:42;4.30;;;1.50;;
3563;SDS011;1796;52.388;13.096;2023-04-01T07:38:19;6.93;;;2.13;;
3563;SDS011;1796;52.388;13.096;2023-04-01T07:40:55;3.60;;;1.60;;
3563;SDS011;1796;52.388;13.096;2023-04-01T07:43:37;3.23;;;1.80;;
3563;SDS011;1796;52.388;13.096;2023-04-01T07:46:13;5.47;;;2.90;;
3563;SDS011;1796;52.388;13.096;2023-04-01T07:48:52;5.00;;;2.70;;
3563;SDS011;1796;52.388;13.096;2023-04-01T07:51:26;3.03;;;1.67;;
3563;SDS011;1796;52.388;13.096;2023-04-01T07:53:59;7.50;;;2.13;;
3563;SDS011;1796;52.388;13.096;2023-04-01T07:59:08;2.50;;;2.27;;
3563;SDS011;1796;52.388;13.096;2023-04-01T08:01:43;3.03;;;2.03;;
3563;SDS011;1796;52.388;13.096;2023-04-01T08:04:18;2.00;;;1.80;;
3563;SDS011;1796;52.388;13.096;2023-04-01T08:06:56;3.30;;;1.90;;
3563;SDS011;1796;52.388;13.096;2023-04-01T08:09:32;4.70;;;2.10;;
3563;SDS011;1796;52.388;13.096;2023-04-01T08:12:13;4.20;;;1.60;;
3563;SDS011;1796;52.388;13.096;2023-04-01T08:14:52;4.60;;;2.00;;
3563;SDS011;1796;52.388;13.096;2023-04-01T08:17:28;5.03;;;1.43;;
3563;SDS011;1796;52.388;13.096;2023-04-01T08:20:04;6.47;;;1.90;;
3563;SDS011;1796;52.388;13.096;2023-04-01T08:22:41;5.40;;;1.90;;
3563;SDS011;1796;52.388;13.096;2023-04-01T08:25:12;4.77;;;1.73;;
3563;SDS011;1796;52.388;13.096;2023-04-01T08:27:44;3.80;;;1.80;;
3563;SDS011;1796;52.388;13.096;2023-04-01T08:30:19;1.97;;;1.40;;
3563;SDS011;1796;52.388;13.096;2023-04-01T08:32:50;1.77;;;1.67;;
3563;SDS011;1796;52.388;13.096;2023-04-01T08:35:24;1.70;;;1.30;;
3563;SDS011;1796;52.388;13.096;2023-04-01T08:37:56;4.97;;;1.67;;
3563;SDS011;1796;52.388;13.096;2023-04-01T08:40:45;3.00;;;1.77;;
3563;SDS011;1796;52.388;13.096;2023-04-01T08:46:34;6.00;;;1.60;;
3563;SDS011;1796;52.388;13.096;2023-04-01T08:52:36;7.73;;;1.40;;
3563;SDS011;1796;52.388;13.096;2023-04-01T08:55:19;3.03;;;1.90;;
3563;SDS011;1796;52.388;13.096;2023-04-01T08:58:03;1.97;;;1.50;;
3563;SDS011;1796;52.388;13.096;2023-04-01T09:00:47;3.20;;;1.80;;
3563;SDS011;1796;52.388;13.096;2023-04-01T09:03:32;2.27;;;1.20;;
3563;SDS011;1796;52.388;13.096;2023-04-01T09:06:20;3.27;;;1.87;;
3563;SDS011;1796;52.388;13.096;2023-04-01T09:21:04;2.30;;;1.13;;
3563;SDS011;1796;52.388;13.096;2023-04-01T09:26:55;2.30;;;1.20;;
3563;SDS011;1796;52.388;13.096;2023-04-01T09:29:40;3.67;;;1.30;;
3563;SDS011;1796;52.388;13.096;2023-04-01T09:32:29;2.40;;;1.20;;
3563;SDS011;1796;52.388;13.096;2023-04-01T09:35:15;2.60;;;1.20;;
3563;SDS011;1796;52.388;13.096;2023-04-01T09:37:55;2.40;;;1.43;;
3563;SDS011;1796;52.388;13.096;2023-04-01T09:40:31;1.57;;;1.20;;
3563;SDS011;1796;52.388;13.096;2023-04-01T09:43:13;3.70;;;1.60;;
3563;SDS011;1796;52.388;13.096;2023-04-01T09:45:53;11.33;;;1.80;;
3563;SDS011;1796;52.388;13.096;2023-04-01T09:51:46;4.50;;;1.83;;
3563;SDS011;1796;52.388;13.096;2023-04-01T09:54:32;4.20;;;1.83;;
3563;SDS011;1796;52.388;13.096;2023-04-01T10:00:08;8.17;;;1.50;;
3563;SDS011;1796;52.388;13.096;2023-04-01T10:06:10;1.63;;;1.53;;
3563;SDS011;1796;52.388;13.096;2023-04-01T10:12:34;3.00;;;1.37;;
3563;SDS011;1796;52.388;13.096;2023-04-01T10:27:11;3.77;;;3.47;;
3563;SDS011;1796;52.388;13.096;2023-04-01T10:29:54;16.40;;;3.80;;
3563;SDS011;1796;52.388;13.096;2023-04-01T10:32:43;5.80;;;4.90;;
3563;SDS011;1796;52.388;13.096;2023-04-01T10:35:41;5.13;;;4.73;;
3563;SDS011;1796;52.388;13.096;2023-04-01T10:44:47;7.20;;;6.50;;
3563;SDS011;1796;52.388;13.096;2023-04-01T10:47:48;6.90;;;5.87;;
3563;SDS011;1796;52.388;13.096;2023-04-01T10:53:49;7.00;;;6.30;;
3563;SDS011;1796;52.388;13.096;2023-04-01T10:56:57;7.90;;;6.40;;
3563;SDS011;1796;52.388;13.096;2023-04-01T11:02:56;6.20;;;5.60;;
3563;SDS011;1796;52.388;13.096;2023-04-01T11:05:56;6.27;;;5.67;;
3563;SDS011;1796;52.388;13.096;2023-04-01T11:12:00;8.30;;;5.53;;
3563;SDS011;1796;52.388;13.096;2023-04-01T11:15:03;8.10;;;5.77;;
3563;SDS011;1796;52.388;13.096;2023-04-01T11:21:21;7.47;;;6.57;;
3563;SDS011;1796;52.388;13.096;2023-04-01T11:24:16;9.83;;;6.87;;
3563;SDS011;1796;52.388;13.096;2023-04-01T11:26:58;7.77;;;6.97;;
3563;SDS011;1796;52.388;13.096;2023-04-01T11:35:31;8.97;;;7.57;;
3563;SDS011;1796;52.388;13.096;2023-04-01T11:38:30;10.33;;;8.13;;
3563;SDS011;1796;52.388;13.096;2023-04-01T11:41:13;10.17;;;7.90;;
3563;SDS011;1796;52.388;13.096;2023-04-01T11:43:50;8.50;;;7.00;;
3563;SDS011;1796;52.388;13.096;2023-04-01T11:46:28;11.10;;;7.23;;
3563;SDS011;1796;52.388;13.096;2023-04-01T11:49:06;7.53;;;6.87;;
3563;SDS011;1796;52.388;13.096;2023-04-01T11:55:02;7.30;;;6.70;;
3563;SDS011;1796;52.388;13.096;2023-04-01T11:57:43;8.73;;;7.93;;
3563;SDS011;1796;52.388;13.096;2023-04-01T12:00:30;7.40;;;6.70;;
3563;SDS011;1796;52.388;13.096;2023-04-01T12:03:17;7.40;;;6.70;;
3563;SDS011;1796;52.388;13.096;2023-04-01T12:06:00;7.90;;;6.90;;
3563;SDS011;1796;52.388;13.096;2023-04-01T12:08:33;8.60;;;7.60;;
3563;SDS011;1796;52.388;13.096;2023-04-01T12:11:09;6.87;;;6.37;;
3563;SDS011;1796;52.388;13.096;2023-04-01T12:13:43;7.40;;;6.70;;
3563;SDS011;1796;52.388;13.096;2023-04-01T12:16:24;7.70;;;7.10;;
3563;SDS011;1796;52.388;13.096;2023-04-01T12:19:00;6.80;;;6.20;;
3563;SDS011;1796;52.388;13.096;2023-04-01T12:21:36;7.37;;;6.67;;
3563;SDS011;1796;52.388;13.096;2023-04-01T12:27:18;7.63;;;7.00;;
3563;SDS011;1796;52.388;13.096;2023-04-01T12:29:57;8.77;;;7.87;;
3563;SDS011;1796;52.388;13.096;2023-04-01T12:32:34;8.03;;;7.23;;
3563;SDS011;1796;52.388;13.096;2023-04-01T12:35:13;5.83;;;5.33;;
3563;SDS011;1796;52.388;13.096;2023-04-01T12:37:49;5.83;;;5.27;;
3563;SDS011;1796;52.388;13.096;2023-04-01T12:43:40;5.57;;;5.17;;
3563;SDS011;1796;52.388;13.096;2023-04-01T12:46:26;4.87;;;4.43;;
3563;SDS011;1796;52.388;13.096;2023-04-01T12:49:15;5.77;;;4.90;;
3563;SDS011;1796;52.388;13.096;2023-04-01T12:52:06;4.47;;;4.17;;
3563;SDS011;1796;52.388;13.096;2023-04-01T12:54:42;4.23;;;3.93;;
3563;SDS011;1796;52.388;13.096;2023-04-01T12:57:28;5.57;;;5.17;;
3563;SDS011;1796;52.388;13.096;2023-04-01T13:00:25;7.40;;;6.70;;
3563;SDS011;1796;52.388;13.096;2023-04-01T13:03:12;8.60;;;7.70;;
3563;SDS011;1796;52.388;13.096;2023-04-01T13:08:49;10.23;;;8.23;;
3563;SDS011;1796;52.388;13.096;2023-04-01T13:11:24;9.10;;;8.30;;
3563;SDS011;1796;52.388;13.096;2023-04-01T13:17:09;10.80;;;9.67;;
3563;SDS011;1796;52.388;13.096;2023-04-01T13:19:44;11.77;;;9.60;;
3563;SDS011;1796;52.388;13.096;2023-04-01T13:22:17;11.03;;;9.10;;
3563;SDS011;1796;52.388;13.096;2023-04-01T13:24:49;9.40;;;8.60;;
3563;SDS011;1796;52.388;13.096;2023-04-01T13:27:24;8.43;;;7.63;;
3563;SDS011;1796;52.388;13.096;2023-04-01T13:29:59;11.43;;;8.47;;
3563;SDS011;1796;52.388;13.096;2023-04-01T13:32:40;7.65;;;7.05;;
3563;SDS011;1796;52.388;13.096;2023-04-01T13:35:21;8.73;;;7.97;;
3563;SDS011;1796;52.388;13.096;2023-04-01T13:38:08;9.43;;;8.50;;
3563;SDS011;1796;52.388;13.096;2023-04-01T13:40:53;9.93;;;8.80;;
3563;SDS011;1796;52.388;13.096;2023-04-01T13:43:27;9.77;;;8.53;;
3563;SDS011;1796;52.388;13.096;2023-04-01T13:46:06;10.40;;;9.40;;
3563;SDS011;1796;52.388;13.096;2023-04-01T13:48:53;11.50;;;10.20;;
3563;SDS011;1796;52.388;13.096;2023-04-01T13:51:39;13.10;;;10.77;;
3563;SDS011;1796;52.388;13.096;2023-04-01T13:54:23;12.77;;;11.17;;
3563;SDS011;1796;52.388;13.096;2023-04-01T13:57:20;11.93;;;10.63;;
3563;SDS011;1796;52.388;13.096;2023-04-01T14:00:10;11.37;;;10.27;;
3563;SDS011;1796;52.388;13.096;2023-04-01T14:02:57;12.30;;;10.97;;
3563;SDS011;1796;52.388;13.096;2023-04-01T14:05:59;12.80;;;11.50;;
3563;SDS011;1796;52.388;13.096;2023-04-01T14:08:40;12.03;;;10.73;;
3563;SDS011;1796;52.388;13.096;2023-04-01T14:11:22;15.50;;;12.70;;
3563;SDS011;1796;52.388;13.096;2023-04-01T14:14:03;13.30;;;11.23;;
3563;SDS011;1796;52.388;13.096;2023-04-01T14:16:53;11.70;;;10.40;;
3563;SDS011;1796;52.388;13.096;2023-04-01T14:19:31;11.63;;;10.33;;
3563;SDS011;1796;52.388;13.096;2023-04-01T14:22:13;12.20;;;10.53;;
3563;SDS011;1796;52.388;13.096;2023-04-01T14:28:00;13.57;;;10.67;;
3563;SDS011;1796;52.388;13.096;2023-04-01T14:30:40;12.60;;;10.80;;
3563;SDS011;1796;52.388;13.096;2023-04-01T14:33:28;13.20;;;10.50;;
3563;SDS011;1796;52.388;13.096;2023-04-01T14:36:09;14.40;;;10.70;;
3563;SDS011;1796;52.388;13.096;2023-04-01T14:38:58;14.73;;;10.50;;
3563;SDS011;1796;52.388;13.096;2023-04-01T14:41:38;11.00;;;9.47;;
3563;SDS011;1796;52.388;13.096;2023-04-01T14:44:23;10.73;;;9.63;;
3563;SDS011;1796;52.388;13.096;2023-04-01T14:47:19;13.23;;;10.13;;
3563;SDS011;1796;52.388;13.096;2023-04-01T14:50:03;10.80;;;9.60;;
3563;SDS011;1796;52.388;13.096;2023-04-01T14:52:36;10.13;;;8.93;;
3563;SDS011;1796;52.388;13.096;2023-04-01T14:55:16;11.83;;;9.30;;
3563;SDS011;1796;52.388;13.096;2023-04-01T14:57:59;9.43;;;8.53;;
3563;SDS011;1796;52.388;13.096;2023-04-01T15:00:40;10.37;;;9.37;;
3563;SDS011;1796;52.388;13.096;2023-04-01T15:03:19;9.53;;;8.53;;
3563;SDS011;1796;52.388;13.096;2023-04-01T15:05:52;9.73;;;8.73;;
3563;SDS011;1796;52.388;13.096;2023-04-01T15:08:27;8.90;;;8.00;;
3563;SDS011;1796;52.388;13.096;2023-04-01T15:11:06;10.27;;;8.40;;
3563;SDS011;1796;52.388;13.096;2023-04-01T15:13:58;9.33;;;8.10;;
3563;SDS011;1796;52.388;13.096;2023-04-01T15:16:34;9.47;;;8.63;;
3563;SDS011;1796;52.388;13.096;2023-04-01T15:19:11;9.73;;;8.80;;
3563;SDS011;1796;52.388;13.096;2023-04-01T15:21:44;8.67;;;7.53;;
3563;SDS011;1796;52.388;13.096;2023-04-01T15:24:37;10.00;;;9.07;;
3563;SDS011;1796;52.388;13.096;2023-04-01T15:27:18;8.27;;;7.40;;
3563;SDS011;1796;52.388;13.096;2023-04-01T15:30:02;8.60;;;7.33;;
3563;SDS011;1796;52.388;13.096;2023-04-01T15:33:01;9.53;;;8.60;;
3563;SDS011;1796;52.388;13.096;2023-04-01T15:35:43;9.27;;;8.33;;
3563;SDS011;1796;52.388;13.096;2023-04-01T15:38:20;12.40;;;7.97;;
3563;SDS011;1796;52.388;13.096;2023-04-01T15:40:58;10.00;;;8.77;;
3563;SDS011;1796;52.388;13.096;2023-04-01T15:43:35;10.33;;;8.00;;
3563;SDS011;1796;52.388;13.096;2023-04-01T15:46:14;9.60;;;8.67;;
3563;SDS011;1796;52.388;13.096;2023-04-01T15:48:56;8.97;;;8.07;;
3563;SDS011;1796;52.388;13.096;2023-04-01T15:54:27;8.30;;;7.50;;
3563;SDS011;1796;52.388;13.096;2023-04-01T15:57:16;8.87;;;8.00;;
3563;SDS011;1796;52.388;13.096;2023-04-01T16:00:03;12.33;;;8.33;;
3563;SDS011;1796;52.388;13.096;2023-04-01T16:02:38;8.10;;;7.40;;
3563;SDS011;1796;52.388;13.096;2023-04-01T16:05:11;8.70;;;7.77;;
3563;SDS011;1796;52.388;13.096;2023-04-01T16:08:01;15.03;;;7.73;;
3563;SDS011;1796;52.388;13.096;2023-04-01T16:10:48;7.50;;;6.80;;
3563;SDS011;1796;52.388;13.096;2023-04-01T16:13:37;8.87;;;8.07;;
3563;SDS011;1796;52.388;13.096;2023-04-01T16:16:16;8.30;;;7.50;;
3563;SDS011;1796;52.388;13.096;2023-04-01T16:19:01;7.10;;;6.40;;
3563;SDS011;1796;52.388;13.096;2023-04-01T16:21:48;9.37;;;7.03;;
3563;SDS011;1796;52.388;13.096;2023-04-01T16:24:22;7.00;;;6.40;;
3563;SDS011;1796;52.388;13.096;2023-04-01T16:26:58;8.90;;;6.70;;
3563;SDS011;1796;52.388;13.096;2023-04-01T16:29:33;7.83;;;7.03;;
3563;SDS011;1796;52.388;13.096;2023-04-01T16:32:17;7.50;;;6.80;;
3563;SDS011;1796;52.388;13.096;2023-04-01T16:35:19;7.97;;;7.17;;
3563;SDS011;1796;52.388;13.096;2023-04-01T16:38:03;9.83;;;7.17;;
3563;SDS011;1796;52.388;13.096;2023-04-01T16:40:47;8.33;;;7.30;;
3563;SDS011;1796;52.388;13.096;2023-04-01T16:43:28;9.27;;;6.70;;
3563;SDS011;1796;52.388;13.096;2023-04-01T16:49:05;10.53;;;8.10;;
3563;SDS011;1796;52.388;13.096;2023-04-01T16:51:52;7.80;;;7.10;;
3563;SDS011;1796;52.388;13.096;2023-04-01T16:54:27;7.67;;;7.07;;
3563;SDS011;1796;52.388;13.096;2023-04-01T16:57:02;11.77;;;6.83;;
3563;SDS011;1796;52.388;13.096;2023-04-01T16:59:43;8.43;;;7.57;;
3563;SDS011;1796;52.388;13.096;2023-04-01T17:02:13;11.37;;;7.70;;
3563;SDS011;1796;52.388;13.096;2023-04-01T17:04:45;7.30;;;6.60;;
3563;SDS011;1796;52.388;13.096;2023-04-01T17:07:17;10.20;;;5.93;;
3563;SDS011;1796;52.388;13.096;2023-04-01T17:13:03;7.00;;;6.30;;
3563;SDS011;1796;52.388;13.096;2023-04-01T17:15:51;6.90;;;6.30;;
3563;SDS011;1796;52.388;13.096;2023-04-01T17:18:28;6.83;;;6.10;;
3563;SDS011;1796;52.388;13.096;2023-04-01T17:21:04;5.57;;;5.17;;
3563;SDS011;1796;52.388;13.096;2023-04-01T17:23:37;5.77;;;5.33;;
3563;SDS011;1796;52.388;13.096;2023-04-01T17:26:20;5.43;;;4.97;;
3563;SDS011;1796;52.388;13.096;2023-04-01T17:28:57;6.40;;;5.23;;
3563;SDS011;1796;52.388;13.096;2023-04-01T17:31:42;5.90;;;5.40;;
3563;SDS011;1796;52.388;13.096;2023-04-01T17:34:19;5.10;;;4.73;;
3563;SDS011;1796;52.388;13.096;2023-04-01T17:37:14;6.30;;;5.80;;
3563;SDS011;1796;52.388;13.096;2023-04-01T17:39:56;5.60;;;5.20;;